createdAt,value
2023-05-04T00:00:04.962Z,10.52
2023-05-04T00:01:04.698Z,10.52
2023-05-04T00:02:04.694Z,10.56
2023-05-04T00:03:04.776Z,10.56
2023-05-04T00:04:04.821Z,10.52
2023-05-04T00:05:04.677Z,10.52
2023-05-04T00:06:04.709Z,10.52
2023-05-04T00:07:04.645Z,10.45
2023-05-04T00:08:04.631Z,10.41
2023-05-04T00:09:04.606Z,10.47
2023-05-04T00:10:04.891Z,10.33
2023-05-04T00:11:04.596Z,10.34
2023-05-04T00:12:04.578Z,10.41
2023-05-04T00:13:04.675Z,10.40
2023-05-04T00:14:04.559Z,10.44
2023-05-04T00:15:04.559Z,10.33
2023-05-04T00:16:04.615Z,10.36
2023-05-04T00:17:04.526Z,10.34
2023-05-04T00:18:04.584Z,10.42
2023-05-04T00:19:04.561Z,10.36
2023-05-04T00:20:04.766Z,10.34
2023-05-04T00:21:04.474Z,10.26
2023-05-04T00:22:04.499Z,10.25
2023-05-04T00:23:04.450Z,10.22
2023-05-04T00:24:04.455Z,10.22
2023-05-04T00:25:04.470Z,10.17
2023-05-04T00:26:04.422Z,10.17
2023-05-04T00:27:04.451Z,10.17
2023-05-04T00:28:04.404Z,10.05
2023-05-04T00:29:04.414Z,10.08
2023-05-04T00:30:04.565Z,10.08
2023-05-04T00:31:04.395Z,10.04
2023-05-04T00:32:04.446Z,10.01
2023-05-04T00:33:04.386Z,10.08
2023-05-04T00:34:04.356Z,9.96
2023-05-04T00:35:04.344Z,9.99
2023-05-04T00:36:04.330Z,9.79
2023-05-04T00:37:04.321Z,9.83
2023-05-04T00:38:04.326Z,9.79
2023-05-04T00:39:04.297Z,9.89
2023-05-04T00:40:04.481Z,9.86
2023-05-04T00:41:04.252Z,9.84
2023-05-04T00:42:04.278Z,9.83
2023-05-04T00:43:04.243Z,9.78
2023-05-04T00:44:04.297Z,9.79
2023-05-04T00:45:04.218Z,9.78
2023-05-04T00:46:04.242Z,9.79
2023-05-04T00:47:04.323Z,9.69
2023-05-04T00:48:04.218Z,9.86
2023-05-04T00:49:04.186Z,9.74
2023-05-04T00:50:04.510Z,9.72
2023-05-04T00:51:04.155Z,9.61
2023-05-04T00:52:04.150Z,9.71
2023-05-04T00:53:04.122Z,9.72
2023-05-04T00:54:04.148Z,9.64
2023-05-04T00:55:04.103Z,9.60
2023-05-04T00:56:04.096Z,9.69
2023-05-04T00:57:04.103Z,9.57
2023-05-04T00:58:04.075Z,9.50
2023-05-04T00:59:04.068Z,9.47
2023-05-04T01:00:04.267Z,9.50
2023-05-04T01:01:04.145Z,9.50
2023-05-04T01:02:04.048Z,9.48
2023-05-04T01:03:04.083Z,9.57
2023-05-04T01:04:04.159Z,9.56
2023-05-04T01:05:04.016Z,9.43
2023-05-04T01:06:03.990Z,9.47
2023-05-04T01:07:04.016Z,9.42
2023-05-04T01:08:03.976Z,9.53
2023-05-04T01:09:03.973Z,9.40
2023-05-04T01:10:04.226Z,9.43
2023-05-04T01:11:03.969Z,9.38
2023-05-04T01:12:03.946Z,9.36
2023-05-04T01:13:03.938Z,9.39
2023-05-04T01:14:03.900Z,9.42
2023-05-04T01:15:03.889Z,9.29
2023-05-04T01:16:03.892Z,9.21
2023-05-04T01:17:04.141Z,9.29
2023-05-04T01:18:03.895Z,9.28
2023-05-04T01:19:03.957Z,9.31
2023-05-04T01:20:04.151Z,9.24
2023-05-04T01:21:03.821Z,9.39
2023-05-04T01:22:03.836Z,9.36
2023-05-04T01:23:03.834Z,9.39
2023-05-04T01:24:03.804Z,9.40
2023-05-04T01:25:03.832Z,9.36
2023-05-04T01:26:03.803Z,9.40
2023-05-04T01:27:03.754Z,9.39
2023-05-04T01:28:03.766Z,9.35
2023-05-04T01:29:03.768Z,9.42
2023-05-04T01:30:03.995Z,9.35
2023-05-04T01:31:03.809Z,9.36
2023-05-04T01:32:03.721Z,9.40
2023-05-04T01:33:03.736Z,9.35
2023-05-04T01:34:03.698Z,9.29
2023-05-04T01:35:03.689Z,9.35
2023-05-04T01:36:03.677Z,9.31
2023-05-04T01:37:03.686Z,9.40
2023-05-04T01:38:03.672Z,9.42
2023-05-04T01:39:03.623Z,9.31
2023-05-04T01:40:03.836Z,9.31
2023-05-04T01:41:03.601Z,9.23
2023-05-04T01:42:03.621Z,9.29
2023-05-04T01:43:03.594Z,9.24
2023-05-04T01:44:03.587Z,9.33
2023-05-04T01:45:03.563Z,9.17
2023-05-04T01:46:03.600Z,9.24
2023-05-04T01:47:03.544Z,9.10
2023-05-04T01:48:03.549Z,9.14
2023-05-04T01:49:03.547Z,8.99
2023-05-04T01:50:03.733Z,9.10
2023-05-04T01:51:03.509Z,9.05
2023-05-04T01:52:03.492Z,8.95
2023-05-04T01:53:03.469Z,8.92
2023-05-04T01:54:03.461Z,8.89
2023-05-04T01:55:03.494Z,8.92
2023-05-04T01:56:03.542Z,8.91
2023-05-04T01:57:03.447Z,8.91
2023-05-04T01:58:03.441Z,8.86
2023-05-04T01:59:03.399Z,8.83
2023-05-04T02:00:03.686Z,8.94
2023-05-04T02:01:03.442Z,8.91
2023-05-04T02:02:03.458Z,8.83
2023-05-04T02:03:03.458Z,8.76
2023-05-04T02:04:03.630Z,8.74
2023-05-04T02:05:03.353Z,8.79
2023-05-04T02:06:03.328Z,8.84
2023-05-04T02:07:03.332Z,8.83
2023-05-04T02:08:03.341Z,8.74
2023-05-04T02:09:03.295Z,8.77
2023-05-04T02:10:03.440Z,8.70
2023-05-04T02:11:03.271Z,8.77
2023-05-04T02:12:03.287Z,8.73
2023-05-04T02:13:03.308Z,8.68
2023-05-04T02:14:03.334Z,8.71
2023-05-04T02:15:03.248Z,8.74
2023-05-04T02:16:03.244Z,8.71
2023-05-04T02:17:03.208Z,8.76
2023-05-04T02:18:03.280Z,8.71
2023-05-04T02:19:03.182Z,8.74
2023-05-04T02:20:03.358Z,8.65
2023-05-04T02:21:03.176Z,8.76
2023-05-04T02:22:03.168Z,8.70
2023-05-04T02:23:03.153Z,8.77
2023-05-04T02:24:03.152Z,8.73
2023-05-04T02:25:03.133Z,8.76
2023-05-04T02:26:03.128Z,8.76
2023-05-04T02:27:03.108Z,8.79
2023-05-04T02:28:03.134Z,8.77
2023-05-04T02:29:03.075Z,8.87
2023-05-04T02:30:03.300Z,8.76
2023-05-04T02:31:03.147Z,8.83
2023-05-04T02:32:03.212Z,8.83
2023-05-04T02:33:03.087Z,8.77
2023-05-04T02:34:03.031Z,8.83
2023-05-04T02:35:03.009Z,8.86
2023-05-04T02:36:03.033Z,8.87
2023-05-04T02:37:04.121Z,8.77
2023-05-04T02:38:02.973Z,8.77
2023-05-04T02:39:02.987Z,8.77
2023-05-04T02:40:03.283Z,8.71
2023-05-04T02:41:02.945Z,8.71
2023-05-04T02:42:03.028Z,8.73
2023-05-04T02:43:02.928Z,8.74
2023-05-04T02:44:02.929Z,8.77
2023-05-04T02:45:02.899Z,8.73
2023-05-04T02:46:02.961Z,8.73
2023-05-04T02:47:02.885Z,8.77
2023-05-04T02:48:03.135Z,8.74
2023-05-04T02:49:02.867Z,8.71
2023-05-04T02:50:03.326Z,8.68
2023-05-04T02:51:02.854Z,8.62
2023-05-04T02:52:02.853Z,8.66
2023-05-04T02:53:02.824Z,8.66
2023-05-04T02:54:02.931Z,8.56
2023-05-04T02:55:02.795Z,8.63
2023-05-04T02:56:02.798Z,8.52
2023-05-04T02:57:02.775Z,8.55
2023-05-04T02:58:02.778Z,8.53
2023-05-04T02:59:02.745Z,8.52
2023-05-04T03:00:02.975Z,8.52
2023-05-04T03:01:02.798Z,8.48
2023-05-04T03:02:02.740Z,8.45
2023-05-04T03:03:02.762Z,8.43
2023-05-04T03:04:02.754Z,8.53
2023-05-04T03:05:02.689Z,8.44
2023-05-04T03:06:02.727Z,8.47
2023-05-04T03:07:02.673Z,8.43
2023-05-04T03:08:02.677Z,8.40
2023-05-04T03:09:02.651Z,8.40
2023-05-04T03:10:02.626Z,8.41
2023-05-04T03:11:02.638Z,8.40
2023-05-04T03:12:02.654Z,8.37
2023-05-04T03:13:02.647Z,8.40
2023-05-04T03:14:02.580Z,8.38
2023-05-04T03:15:02.577Z,8.34
2023-05-04T03:16:02.601Z,8.33
2023-05-04T03:17:02.584Z,8.38
2023-05-04T03:18:02.697Z,8.34
2023-05-04T03:19:02.549Z,8.40
2023-05-04T03:20:02.822Z,8.36
2023-05-04T03:21:02.536Z,8.29
2023-05-04T03:22:02.521Z,8.36
2023-05-04T03:23:02.491Z,8.25
2023-05-04T03:24:02.554Z,8.26
2023-05-04T03:25:02.466Z,8.34
2023-05-04T03:26:02.458Z,8.23
2023-05-04T03:27:02.464Z,8.28
2023-05-04T03:28:02.484Z,8.38
2023-05-04T03:29:02.424Z,8.19
2023-05-04T03:30:02.714Z,8.12
2023-05-04T03:31:02.423Z,8.19
2023-05-04T03:32:02.398Z,8.12
2023-05-04T03:33:02.436Z,8.11
2023-05-04T03:34:02.474Z,8.12
2023-05-04T03:35:04.054Z,8.04
2023-05-04T03:36:02.363Z,8.11
2023-05-04T03:37:02.353Z,8.11
2023-05-04T03:38:02.336Z,8.02
2023-05-04T03:39:02.322Z,8.10
2023-05-04T03:40:02.460Z,8.15
2023-05-04T03:41:02.300Z,8.07
2023-05-04T03:42:02.357Z,8.00
2023-05-04T03:43:02.272Z,8.02
2023-05-04T03:44:02.265Z,7.98
2023-05-04T03:45:04.083Z,8.02
2023-05-04T03:46:02.366Z,7.98
2023-05-04T03:47:02.232Z,8.05
2023-05-04T03:48:02.265Z,8.00
2023-05-04T03:49:02.210Z,8.10
2023-05-04T03:50:02.496Z,8.18
2023-05-04T03:51:02.179Z,8.10
2023-05-04T03:52:02.249Z,8.08
2023-05-04T03:53:02.164Z,8.20
2023-05-04T03:54:02.147Z,8.29
2023-05-04T03:55:02.143Z,8.29
2023-05-04T03:56:02.124Z,8.33
2023-05-04T03:57:02.137Z,8.36
2023-05-04T03:58:02.164Z,8.36
2023-05-04T03:59:02.108Z,8.44
2023-05-04T04:00:02.247Z,8.48
2023-05-04T04:01:02.106Z,8.50
2023-05-04T04:02:02.092Z,8.48
2023-05-04T04:03:02.148Z,8.56
2023-05-04T04:04:02.242Z,8.55
2023-05-04T04:05:02.032Z,8.61
2023-05-04T04:06:02.042Z,8.55
2023-05-04T04:07:02.051Z,8.56
2023-05-04T04:08:02.000Z,8.61
2023-05-04T04:09:02.000Z,8.62
2023-05-04T04:10:02.076Z,8.71
2023-05-04T04:11:01.959Z,8.76
2023-05-04T04:12:01.949Z,8.74
2023-05-04T04:13:02.038Z,8.66
2023-05-04T04:14:01.954Z,8.71
2023-05-04T04:15:01.919Z,8.77
2023-05-04T04:16:02.028Z,8.77
2023-05-04T04:17:01.907Z,8.73
2023-05-04T04:18:01.975Z,8.76
2023-05-04T04:19:01.910Z,8.81
2023-05-04T04:20:01.911Z,8.71
2023-05-04T04:21:01.855Z,8.74
2023-05-04T04:22:01.900Z,8.77
2023-05-04T04:23:01.832Z,8.77
2023-05-04T04:24:01.812Z,8.79
2023-05-04T04:25:01.825Z,8.79
2023-05-04T04:26:01.803Z,8.84
2023-05-04T04:27:01.783Z,8.83
2023-05-04T04:28:01.871Z,8.81
2023-05-04T04:29:01.792Z,8.83
2023-05-04T04:30:01.765Z,8.81
2023-05-04T04:31:01.800Z,8.73
2023-05-04T04:32:01.743Z,8.86
2023-05-04T04:33:01.753Z,8.91
2023-05-04T04:34:01.770Z,8.83
2023-05-04T04:35:01.730Z,8.87
2023-05-04T04:36:01.687Z,8.94
2023-05-04T04:37:01.680Z,8.86
2023-05-04T04:38:03.743Z,8.91
2023-05-04T04:39:01.684Z,8.91
2023-05-04T04:40:01.727Z,8.92
2023-05-04T04:41:01.639Z,8.94
2023-05-04T04:42:01.641Z,8.95
2023-05-04T04:43:01.641Z,8.99
2023-05-04T04:44:01.614Z,8.95
2023-05-04T04:45:01.603Z,8.95
2023-05-04T04:46:01.631Z,8.98
2023-05-04T04:47:01.613Z,8.98
2023-05-04T04:48:01.623Z,8.95
2023-05-04T04:49:01.558Z,8.89
2023-05-04T04:50:01.541Z,8.92
2023-05-04T04:51:01.590Z,8.91
2023-05-04T04:52:01.605Z,8.91
2023-05-04T04:53:01.536Z,8.91
2023-05-04T04:54:01.508Z,8.87
2023-05-04T04:55:01.483Z,8.94
2023-05-04T04:56:01.470Z,9.01
2023-05-04T04:57:01.465Z,8.94
2023-05-04T04:58:01.535Z,8.95
2023-05-04T04:59:01.437Z,8.92
2023-05-04T05:00:01.448Z,8.94
2023-05-04T05:01:01.455Z,8.92
2023-05-04T05:02:01.455Z,8.96
2023-05-04T05:03:01.485Z,9.01
2023-05-04T05:04:01.405Z,9.08
2023-05-04T05:05:01.439Z,9.05
2023-05-04T05:06:01.366Z,9.15
2023-05-04T05:07:01.362Z,9.17
2023-05-04T05:08:01.340Z,9.14
2023-05-04T05:09:01.549Z,9.10
2023-05-04T05:10:01.377Z,9.18
2023-05-04T05:11:01.327Z,9.23
2023-05-04T05:12:01.336Z,9.32
2023-05-04T05:13:01.409Z,9.28
2023-05-04T05:14:01.349Z,9.38
2023-05-04T05:15:01.264Z,9.42
2023-05-04T05:16:01.320Z,9.29
2023-05-04T05:17:01.248Z,9.28
2023-05-04T05:18:01.328Z,9.33
2023-05-04T05:19:01.218Z,9.29
2023-05-04T05:20:01.203Z,9.23
2023-05-04T05:21:01.225Z,9.29
2023-05-04T05:22:01.191Z,9.33
2023-05-04T05:23:01.234Z,9.35
2023-05-04T05:24:01.159Z,9.53
2023-05-04T05:25:01.186Z,9.48
2023-05-04T05:26:03.239Z,9.48
2023-05-04T05:27:01.132Z,9.64
2023-05-04T05:28:01.131Z,9.74
2023-05-04T05:29:01.194Z,9.76
2023-05-04T05:30:01.213Z,9.86
2023-05-04T05:31:01.108Z,9.97
2023-05-04T05:32:01.085Z,10.05
2023-05-04T05:33:01.098Z,9.97
2023-05-04T05:34:01.055Z,10.07
2023-05-04T05:35:01.134Z,10.09
2023-05-04T05:36:01.041Z,10.05
2023-05-04T05:37:01.063Z,10.07
2023-05-04T05:38:01.030Z,10.09
2023-05-04T05:39:01.035Z,10.15
2023-05-04T05:40:00.989Z,10.15
2023-05-04T05:41:01.266Z,10.25
2023-05-04T05:42:01.108Z,10.27
2023-05-04T05:43:00.995Z,10.41
2023-05-04T05:44:00.970Z,10.56
2023-05-04T05:45:00.953Z,10.68
2023-05-04T05:46:00.950Z,10.63
2023-05-04T05:47:00.914Z,10.76
2023-05-04T05:48:01.005Z,10.85
2023-05-04T05:49:00.921Z,10.92
2023-05-04T05:50:00.892Z,11.00
2023-05-04T05:51:00.883Z,11.06
2023-05-04T05:52:00.865Z,11.10
2023-05-04T05:53:00.865Z,11.15
2023-05-04T05:54:00.979Z,11.24
2023-05-04T05:55:02.584Z,11.35
2023-05-04T05:56:00.819Z,11.44
2023-05-04T05:57:00.811Z,11.55
2023-05-04T05:58:00.816Z,11.67
2023-05-04T05:59:00.819Z,11.70
2023-05-04T06:00:00.963Z,11.57
2023-05-04T06:01:00.760Z,11.70
2023-05-04T06:02:00.762Z,11.64
2023-05-04T06:03:00.790Z,11.67
2023-05-04T06:04:00.924Z,11.65
2023-05-04T06:05:00.785Z,11.85
2023-05-04T06:06:01.192Z,11.80
2023-05-04T06:07:00.715Z,11.88
2023-05-04T06:08:00.717Z,11.88
2023-05-04T06:09:00.672Z,11.82
2023-05-04T06:10:00.679Z,11.98
2023-05-04T06:11:00.675Z,11.98
2023-05-04T06:12:00.762Z,12.13
2023-05-04T06:13:00.712Z,12.14
2023-05-04T06:14:00.634Z,12.21
2023-05-04T06:15:00.665Z,12.23
2023-05-04T06:16:00.612Z,12.28
2023-05-04T06:17:00.588Z,12.41
2023-05-04T06:18:00.660Z,12.42
2023-05-04T06:19:00.569Z,12.45
2023-05-04T06:20:00.574Z,12.42
2023-05-04T06:21:00.554Z,12.47
2023-05-04T06:22:00.523Z,12.41
2023-05-04T06:23:00.533Z,12.49
2023-05-04T06:24:00.539Z,12.64
2023-05-04T06:25:04.477Z,12.60
2023-05-04T06:26:00.479Z,12.67
2023-05-04T06:27:00.501Z,12.75
2023-05-04T06:28:00.487Z,12.85
2023-05-04T06:29:00.468Z,12.87
2023-05-04T06:30:00.488Z,12.89
2023-05-04T06:31:00.640Z,13.00
2023-05-04T06:32:00.484Z,13.05
2023-05-04T06:33:00.476Z,13.10
2023-05-04T06:34:00.413Z,13.07
2023-05-04T06:35:00.379Z,13.23
2023-05-04T06:36:00.371Z,13.36
2023-05-04T06:37:00.566Z,13.25
2023-05-04T06:38:00.355Z,13.15
2023-05-04T06:39:00.353Z,13.30
2023-05-04T06:40:00.334Z,13.23
2023-05-04T06:41:00.332Z,13.29
2023-05-04T06:42:00.311Z,13.28
2023-05-04T06:43:00.305Z,13.29
2023-05-04T06:44:00.396Z,13.22
2023-05-04T06:45:00.281Z,13.12
2023-05-04T06:46:00.374Z,13.19
2023-05-04T06:47:00.276Z,13.19
2023-05-04T06:48:00.285Z,13.38
2023-05-04T06:49:00.230Z,13.41
2023-05-04T06:50:00.330Z,13.59
2023-05-04T06:51:02.339Z,13.81
2023-05-04T06:52:00.212Z,14.12
2023-05-04T06:53:00.189Z,14.14
2023-05-04T06:54:00.179Z,14.27
2023-05-04T06:55:00.223Z,14.37
2023-05-04T06:56:00.271Z,14.54
2023-05-04T06:57:00.153Z,14.52
2023-05-04T06:58:00.162Z,14.51
2023-05-04T06:59:00.140Z,14.55
2023-05-04T07:00:00.166Z,14.78
2023-05-04T07:01:00.194Z,14.70
2023-05-04T07:02:00.244Z,14.75
2023-05-04T07:03:00.197Z,14.75
2023-05-04T07:04:00.187Z,14.73
2023-05-04T07:05:00.119Z,14.80
2023-05-04T07:06:00.048Z,14.89
2023-05-04T07:07:00.035Z,14.80
2023-05-04T07:08:00.156Z,14.55
2023-05-04T07:09:00.047Z,14.51
2023-05-04T07:10:00.022Z,14.61
2023-05-04T07:11:00.014Z,14.78
2023-05-04T07:11:59.980Z,14.84
2023-05-04T07:12:59.991Z,14.83
2023-05-04T07:14:00.019Z,14.86
2023-05-04T07:14:59.950Z,14.96
2023-05-04T07:15:59.994Z,15.17
2023-05-04T07:16:59.930Z,15.14
2023-05-04T07:17:59.976Z,15.23
2023-05-04T07:18:59.918Z,15.20
2023-05-04T07:20:00.005Z,15.31
2023-05-04T07:21:16.095Z,15.51
2023-05-04T07:22:00.938Z,15.72
2023-05-04T07:22:59.857Z,15.96
2023-05-04T07:23:59.857Z,15.97
2023-05-04T07:24:59.840Z,16.02
2023-05-04T07:25:59.904Z,16.24
2023-05-04T07:26:59.861Z,16.31
2023-05-04T07:27:59.839Z,16.31
2023-05-04T07:28:59.804Z,16.49
2023-05-04T07:29:59.781Z,16.66
2023-05-04T07:30:59.786Z,16.82
2023-05-04T07:31:59.931Z,16.94
2023-05-04T07:32:59.756Z,17.04
2023-05-04T07:33:59.787Z,17.07
2023-05-04T07:34:59.726Z,17.14
2023-05-04T07:35:59.711Z,17.12
2023-05-04T07:36:59.708Z,17.11
2023-05-04T07:37:59.829Z,17.28
2023-05-04T07:38:59.685Z,17.36
2023-05-04T07:39:59.674Z,17.31
2023-05-04T07:40:59.662Z,17.38
2023-05-04T07:41:59.648Z,17.52
2023-05-04T07:42:59.651Z,17.64
2023-05-04T07:43:59.755Z,17.71
2023-05-04T07:44:59.610Z,17.44
2023-05-04T07:45:59.644Z,17.58
2023-05-04T07:46:59.592Z,17.58
2023-05-04T07:47:59.659Z,17.75
2023-05-04T07:48:59.582Z,17.86
2023-05-04T07:49:59.578Z,18.05
2023-05-04T07:50:59.669Z,18.18
2023-05-04T07:51:59.621Z,18.21
2023-05-04T07:52:59.523Z,18.42
2023-05-04T07:53:59.534Z,18.52
2023-05-04T07:54:59.505Z,18.66
2023-05-04T07:55:59.495Z,18.51
2023-05-04T07:56:59.582Z,18.36
2023-05-04T07:57:59.465Z,18.47
2023-05-04T07:58:59.466Z,18.45
2023-05-04T07:59:59.466Z,18.60
2023-05-04T08:00:59.436Z,18.57
2023-05-04T08:01:59.466Z,18.73
2023-05-04T08:02:59.503Z,18.76
2023-05-04T08:03:59.423Z,18.92
2023-05-04T08:04:59.532Z,18.87
2023-05-04T08:05:59.420Z,18.85
2023-05-04T08:06:59.374Z,18.84
2023-05-04T08:07:59.391Z,18.94
2023-05-04T08:08:59.360Z,19.08
2023-05-04T08:09:59.363Z,19.18
2023-05-04T08:11:08.410Z,19.14
2023-05-04T08:12:00.344Z,19.14
2023-05-04T08:12:59.317Z,19.08
2023-05-04T08:13:59.324Z,19.13
2023-05-04T08:14:59.295Z,19.00
2023-05-04T08:15:59.270Z,18.92
2023-05-04T08:16:59.343Z,18.95
2023-05-04T08:17:59.312Z,19.16
2023-05-04T08:18:59.235Z,19.37
2023-05-04T08:19:59.225Z,19.33
2023-05-04T08:20:59.240Z,19.46
2023-05-04T08:21:59.245Z,19.56
2023-05-04T08:22:59.220Z,19.78
2023-05-04T08:23:59.244Z,19.80
2023-05-04T08:24:59.188Z,19.50
2023-05-04T08:25:59.161Z,19.25
2023-05-04T08:27:07.115Z,19.31
2023-05-04T08:28:00.172Z,19.39
2023-05-04T08:28:59.129Z,19.39
2023-05-04T08:29:59.140Z,19.46
2023-05-04T08:30:59.113Z,19.48
2023-05-04T08:31:59.219Z,19.65
2023-05-04T08:32:59.110Z,19.80
2023-05-04T08:33:59.116Z,19.94
2023-05-04T08:34:59.069Z,20.01
2023-05-04T08:35:59.064Z,20.05
2023-05-04T08:36:59.066Z,19.87
2023-05-04T08:37:59.056Z,19.94
2023-05-04T08:38:59.040Z,20.13
2023-05-04T08:39:59.033Z,20.21
2023-05-04T08:40:59.005Z,20.24
2023-05-04T08:41:59.021Z,19.87
2023-05-04T08:42:58.977Z,19.76
2023-05-04T08:43:58.984Z,19.73
2023-05-04T08:44:58.965Z,19.80
2023-05-04T08:45:59.039Z,19.78
2023-05-04T08:46:58.967Z,19.86
2023-05-04T08:47:58.995Z,19.98
2023-05-04T08:48:58.918Z,20.10
2023-05-04T08:49:58.905Z,20.11
2023-05-04T08:50:58.913Z,20.21
2023-05-04T08:51:58.922Z,20.20
2023-05-04T08:52:58.886Z,20.29
2023-05-04T08:53:58.878Z,20.28
2023-05-04T08:54:58.845Z,20.35
2023-05-04T08:55:58.842Z,20.31
2023-05-04T08:56:58.862Z,20.17
2023-05-04T08:57:58.874Z,20.06
2023-05-04T08:58:58.805Z,20.10
2023-05-04T08:59:58.810Z,20.08
2023-05-04T09:00:58.866Z,19.92
2023-05-04T09:01:58.841Z,19.81
2023-05-04T09:02:58.825Z,19.91
2023-05-04T09:03:58.870Z,20.10
2023-05-04T09:04:58.758Z,20.35
2023-05-04T09:05:58.726Z,20.47
2023-05-04T09:06:58.877Z,20.51
2023-05-04T09:07:58.705Z,20.48
2023-05-04T09:08:58.709Z,20.24
2023-05-04T09:09:58.734Z,20.05
2023-05-04T09:10:58.693Z,19.95
2023-05-04T09:11:58.664Z,19.94
2023-05-04T09:12:58.758Z,20.18
2023-05-04T09:13:58.648Z,20.21
2023-05-04T09:14:58.627Z,20.21
2023-05-04T09:15:58.660Z,20.21
2023-05-04T09:16:58.653Z,20.31
2023-05-04T09:17:58.713Z,20.39
2023-05-04T09:18:58.579Z,20.36
2023-05-04T09:19:58.587Z,20.38
2023-05-04T09:20:58.558Z,20.32
2023-05-04T09:21:58.590Z,20.23
2023-05-04T09:22:58.535Z,20.38
2023-05-04T09:23:58.620Z,20.52
2023-05-04T09:24:58.516Z,20.58
2023-05-04T09:25:58.633Z,20.47
2023-05-04T09:26:58.507Z,20.47
2023-05-04T09:27:58.510Z,20.35
2023-05-04T09:28:58.477Z,20.51
2023-05-04T09:29:58.466Z,20.59
2023-05-04T09:30:58.481Z,20.79
2023-05-04T09:31:58.445Z,20.64
2023-05-04T09:32:58.501Z,20.72
2023-05-04T09:33:58.448Z,20.62
2023-05-04T09:34:58.412Z,20.91
2023-05-04T09:35:58.449Z,20.97
2023-05-04T09:36:58.378Z,20.98
2023-05-04T09:37:58.399Z,20.87
2023-05-04T09:38:58.387Z,20.87
2023-05-04T09:39:58.412Z,20.98
2023-05-04T09:40:58.345Z,21.10
2023-05-04T09:41:58.398Z,21.06
2023-05-04T09:42:58.321Z,21.07
2023-05-04T09:43:58.331Z,21.13
2023-05-04T09:44:58.334Z,21.13
2023-05-04T09:45:58.352Z,21.29
2023-05-04T09:46:58.300Z,21.47
2023-05-04T09:47:58.324Z,21.59
2023-05-04T09:48:58.256Z,21.58
2023-05-04T09:49:58.266Z,21.42
2023-05-04T09:50:58.274Z,21.52
2023-05-04T09:51:58.243Z,21.47
2023-05-04T09:52:58.241Z,21.47
2023-05-04T09:53:58.200Z,21.50
2023-05-04T09:54:58.193Z,21.35
2023-05-04T09:55:59.421Z,21.62
2023-05-04T09:56:58.226Z,21.68
2023-05-04T09:57:58.199Z,21.75
2023-05-04T09:58:58.157Z,21.74
2023-05-04T09:59:58.132Z,21.75
2023-05-04T10:00:58.133Z,21.59
2023-05-04T10:02:00.488Z,21.61
2023-05-04T10:02:59.191Z,21.52
2023-05-04T10:03:58.102Z,21.35
2023-05-04T10:04:58.116Z,21.27
2023-05-04T10:05:58.109Z,21.32
2023-05-04T10:06:58.069Z,21.40
2023-05-04T10:07:58.064Z,21.17
2023-05-04T10:08:58.045Z,21.31
2023-05-04T10:09:58.023Z,21.37
2023-05-04T10:10:58.022Z,21.50
2023-05-04T10:12:00.040Z,21.38
2023-05-04T10:12:58.003Z,21.37
2023-05-04T10:13:58.041Z,21.34
2023-05-04T10:14:57.995Z,21.40
2023-05-04T10:15:57.969Z,21.49
2023-05-04T10:16:57.945Z,21.64
2023-05-04T10:17:57.963Z,21.58
2023-05-04T10:18:57.924Z,21.65
2023-05-04T10:19:57.917Z,21.71
2023-05-04T10:20:57.944Z,21.71
2023-05-04T10:21:57.918Z,21.83
2023-05-04T10:22:57.895Z,21.83
2023-05-04T10:23:57.871Z,21.90
2023-05-04T10:24:57.867Z,21.82
2023-05-04T10:25:57.866Z,21.77
2023-05-04T10:26:57.901Z,21.82
2023-05-04T10:27:57.820Z,21.79
2023-05-04T10:28:57.813Z,21.92
2023-05-04T10:29:57.822Z,22.22
2023-05-04T10:30:57.790Z,22.37
2023-05-04T10:31:57.945Z,22.47
2023-05-04T10:32:57.852Z,22.55
2023-05-04T10:33:58.033Z,22.51
2023-05-04T10:34:57.746Z,22.54
2023-05-04T10:35:57.744Z,22.57
2023-05-04T10:36:57.734Z,22.61
2023-05-04T10:37:57.732Z,22.58
2023-05-04T10:38:57.748Z,22.73
2023-05-04T10:39:57.695Z,22.64
2023-05-04T10:40:57.680Z,22.40
2023-05-04T10:41:57.720Z,22.36
2023-05-04T10:42:57.665Z,22.35
2023-05-04T10:43:57.694Z,22.45
2023-05-04T10:44:57.711Z,22.55
2023-05-04T10:45:57.780Z,22.52
2023-05-04T10:46:59.548Z,22.67
2023-05-04T10:47:57.683Z,22.76
2023-05-04T10:48:57.593Z,22.79
2023-05-04T10:49:57.613Z,23.05
2023-05-04T10:50:57.611Z,22.91
2023-05-04T10:51:57.554Z,22.80
2023-05-04T10:52:59.499Z,22.86
2023-05-04T10:53:57.559Z,23.01
2023-05-04T10:54:57.526Z,23.02
2023-05-04T10:55:57.518Z,22.82
2023-05-04T10:56:57.552Z,22.88
2023-05-04T10:57:57.502Z,22.80
2023-05-04T10:58:57.543Z,22.85
2023-05-04T10:59:57.474Z,22.85
2023-05-04T11:00:57.481Z,22.90
2023-05-04T11:01:57.500Z,22.86
2023-05-04T11:02:57.531Z,23.05
2023-05-04T11:03:57.427Z,23.09
2023-05-04T11:04:57.445Z,23.07
2023-05-04T11:05:57.439Z,23.19
2023-05-04T11:06:57.397Z,23.31
2023-05-04T11:07:58.878Z,23.43
2023-05-04T11:08:57.424Z,23.57
2023-05-04T11:09:57.355Z,23.53
2023-05-04T11:10:57.351Z,23.36
2023-05-04T11:11:57.380Z,23.33
2023-05-04T11:12:57.364Z,23.22
2023-05-04T11:13:57.351Z,23.27
2023-05-04T11:14:57.334Z,23.20
2023-05-04T11:15:57.312Z,23.31
2023-05-04T11:16:57.290Z,23.48
2023-05-04T11:17:57.351Z,23.53
2023-05-04T11:18:57.321Z,23.48
2023-05-04T11:19:57.265Z,23.33
2023-05-04T11:20:57.284Z,23.38
2023-05-04T11:21:57.235Z,23.33
2023-05-04T11:22:57.249Z,23.05
2023-05-04T11:23:57.275Z,23.01
2023-05-04T11:24:57.204Z,23.09
2023-05-04T11:25:57.212Z,23.23
2023-05-04T11:26:57.224Z,23.16
2023-05-04T11:27:57.208Z,23.17
2023-05-04T11:28:57.181Z,23.20
2023-05-04T11:29:57.157Z,23.27
2023-05-04T11:30:57.176Z,23.42
2023-05-04T11:31:57.169Z,23.60
2023-05-04T11:32:57.173Z,23.70
2023-05-04T11:33:57.188Z,23.60
2023-05-04T11:34:57.095Z,23.27
2023-05-04T11:35:57.076Z,23.16
2023-05-04T11:36:57.084Z,23.20
2023-05-04T11:37:57.071Z,23.05
2023-05-04T11:38:57.103Z,23.12
2023-05-04T11:39:57.035Z,22.92
2023-05-04T11:40:57.032Z,23.02
2023-05-04T11:41:57.014Z,23.02
2023-05-04T11:42:57.330Z,22.91
2023-05-04T11:43:57.009Z,22.80
2023-05-04T11:44:57.000Z,22.60
2023-05-04T11:45:57.037Z,22.67
2023-05-04T11:46:56.968Z,22.80
2023-05-04T11:47:56.998Z,22.64
2023-05-04T11:48:58.008Z,22.85
2023-05-04T11:49:56.972Z,23.01
2023-05-04T11:50:56.956Z,23.27
2023-05-04T11:51:56.911Z,23.39
2023-05-04T11:52:56.900Z,23.50
2023-05-04T11:53:56.904Z,23.61
2023-05-04T11:54:56.880Z,23.60
2023-05-04T11:55:56.862Z,23.63
2023-05-04T11:56:56.918Z,23.75
2023-05-04T11:57:56.837Z,23.65
2023-05-04T11:58:56.835Z,23.66
2023-05-04T11:59:56.840Z,23.61
2023-05-04T12:00:56.812Z,23.73
2023-05-04T12:01:56.797Z,23.70
2023-05-04T12:02:56.867Z,23.73
2023-05-04T12:03:56.936Z,23.87
2023-05-04T12:04:56.807Z,24.05
2023-05-04T12:05:56.901Z,24.15
2023-05-04T12:06:56.766Z,24.15
2023-05-04T12:07:56.727Z,23.97
2023-05-04T12:08:56.779Z,24.02
2023-05-04T12:09:56.730Z,24.08
2023-05-04T12:10:56.738Z,23.95
2023-05-04T12:11:56.689Z,23.93
2023-05-04T12:12:56.731Z,23.88
2023-05-04T12:13:56.665Z,23.84
2023-05-04T12:14:56.660Z,23.87
2023-05-04T12:15:56.657Z,23.91
2023-05-04T12:16:56.707Z,23.93
2023-05-04T12:17:56.691Z,23.88
2023-05-04T12:18:56.633Z,23.90
2023-05-04T12:19:56.609Z,23.75
2023-05-04T12:20:56.593Z,23.66
2023-05-04T12:21:56.743Z,23.73
2023-05-04T12:22:56.594Z,23.80
2023-05-04T12:23:56.569Z,23.69
2023-05-04T12:24:56.572Z,23.68
2023-05-04T12:25:58.451Z,23.76
2023-05-04T12:26:56.530Z,23.76
2023-05-04T12:27:56.533Z,23.75
2023-05-04T12:28:56.542Z,23.69
2023-05-04T12:29:56.506Z,23.73
2023-05-04T12:30:56.502Z,23.63
2023-05-04T12:31:56.563Z,23.60
2023-05-04T12:32:56.513Z,23.68
2023-05-04T12:33:56.476Z,23.61
2023-05-04T12:34:56.474Z,23.75
2023-05-04T12:35:56.434Z,23.63
2023-05-04T12:36:56.441Z,23.68
2023-05-04T12:37:56.432Z,23.70
2023-05-04T12:38:56.524Z,23.75
2023-05-04T12:39:56.389Z,23.73
2023-05-04T12:40:56.402Z,23.76
2023-05-04T12:41:56.365Z,23.91
2023-05-04T12:42:56.380Z,23.83
2023-05-04T12:43:56.362Z,23.80
2023-05-04T12:44:56.382Z,23.79
2023-05-04T12:45:56.340Z,23.79
2023-05-04T12:46:56.359Z,23.80
2023-05-04T12:47:56.339Z,23.94
2023-05-04T12:48:56.287Z,23.93
2023-05-04T12:49:56.298Z,24.03
2023-05-04T12:50:56.296Z,24.09
2023-05-04T12:51:56.258Z,24.00
2023-05-04T12:52:56.307Z,24.06
2023-05-04T12:53:56.262Z,24.16
2023-05-04T12:54:56.237Z,24.16
2023-05-04T12:55:56.217Z,24.18
2023-05-04T12:56:56.207Z,24.12
2023-05-04T12:57:56.190Z,24.00
2023-05-04T12:58:56.237Z,24.03
2023-05-04T12:59:56.170Z,23.95
2023-05-04T13:00:56.328Z,23.98
2023-05-04T13:01:56.159Z,24.02